Terminal Aerodrome Forecast
Issued by NWS Grand Forks, ND

Home | Current Version | Previous Version | Text Only | Print | Product List | Glossary On
Versions: 1 2 3 4 5 6 7 8 9 10 11 12 13 14
705
FTUS43 KFGF 310520
TAFGFK
TAF
KGFK 310520Z 3106/0106 16009KT P6SM SCT090
     FM311600 16013KT P6SM FEW080
     FM010500 16010KT P6SM BKN120=

USA.gov is the U.S. government's official web portal to all federal, state and local government web resources and services.